Time;durP1;ratioP1;P1;durP2;ratioP2;P2;SDS_P1;SDS_P2;PMS_P1;PMS_P2;Temp;Humidity;BMP_temperature;BMP_pressure;BME280_temperature;BME280_humidity;BME280_pressure;Samples;Min_cycle;Max_cycle;Signal;HPM_P1;HPM_P2
2022/06/03 00:00:11;;;;;;;8.45;6.13;;;;;;;11.65;65.00;101196.09;5071651;28;20535;-52
2022/06/03 00:03:12;;;;;;;8.77;5.20;;;;;;;11.76;64.60;101213.66;5083051;28;20397;-49
2022/06/03 00:06:08;;;;;;;7.70;5.95;;;;;;;11.66;64.61;101195.06;5078657;28;20031;-48
2022/06/03 00:09:10;;;;;;;8.02;5.47;;;;;;;11.72;64.42;101207.81;5051503;28;20028;-49
2022/06/03 00:11:56;;;;;;;9.52;5.70;;;;;;;11.63;65.20;101208.91;5066933;28;20383;-48
2022/06/03 00:14:45;;;;;;;9.30;6.03;;;;;;;11.54;65.41;101205.44;5100012;28;20032;-48
2022/06/03 00:17:51;;;;;;;8.32;6.13;;;;;;;11.69;65.05;101218.09;5100004;28;20051;-48
2022/06/03 00:20:31;;;;;;;5.25;4.75;;;;;;;11.75;64.97;101212.78;5057080;28;20087;-49
2022/06/03 00:23:22;;;;;;;8.95;5.78;;;;;;;11.71;64.97;101210.66;5093107;28;20032;-49
2022/06/03 00:26:13;;;;;;;5.80;4.88;;;;;;;11.69;65.37;101213.53;5075518;28;20441;-49
2022/06/03 00:29:13;;;;;;;12.25;5.25;;;;;;;11.69;65.14;101201.94;5060763;28;20036;-48
2022/06/03 00:32:19;;;;;;;6.10;4.35;;;;;;;11.78;64.84;101193.59;5043340;28;20431;-48
2022/06/03 00:35:14;;;;;;;5.60;4.95;;;;;;;11.72;65.40;101196.19;5043371;28;20092;-49
2022/06/03 00:38:02;;;;;;;5.18;4.25;;;;;;;11.70;64.80;101190.16;5063427;28;20135;-49
2022/06/03 00:40:57;;;;;;;11.43;5.28;;;;;;;11.67;65.49;101193.22;5076049;28;20107;-48
2022/06/03 00:43:46;;;;;;;5.03;4.00;;;;;;;11.66;65.36;101184.31;5061196;28;20029;-48
2022/06/03 00:46:45;;;;;;;5.88;4.22;;;;;;;11.72;65.59;101185.41;5075735;28;20269;-48
2022/06/03 00:49:43;;;;;;;6.30;3.45;;;;;;;11.67;65.78;101188.66;5062071;28;20035;-48
2022/06/03 00:52:49;;;;;;;5.35;3.03;;;;;;;11.75;64.96;101190.44;5061858;28;20491;-48
2022/06/03 00:55:55;;;;;;;4.28;3.47;;;;;;;11.71;64.74;101163.06;5048285;28;20366;-47
2022/06/03 00:58:49;;;;;;;7.68;3.90;;;;;;;11.75;65.08;101187.75;5048514;28;20078;-50
2022/06/03 01:01:38;;;;;;;8.77;4.30;;;;;;;11.75;65.44;101191.28;5073870;28;20400;-48
2022/06/03 01:04:26;;;;;;;4.70;3.88;;;;;;;11.67;65.37;101180.59;5058675;28;20033;-48
2022/06/03 01:07:07;;;;;;;4.82;3.90;;;;;;;11.64;65.63;101172.88;5040159;28;20078;-47
2022/06/03 01:09:49;;;;;;;5.82;3.58;;;;;;;11.63;64.81;101173.91;5057426;28;20028;-48
2022/06/03 01:12:49;;;;;;;4.68;3.72;;;;;;;11.75;65.40;101177.81;5073954;28;20024;-52
2022/06/03 01:15:31;;;;;;;8.35;4.13;;;;;;;11.61;65.63;101176.78;5061731;28;20048;-52
2022/06/03 01:18:31;;;;;;;5.43;4.28;;;;;;;11.60;66.02;101177.78;5073944;28;20025;-51
2022/06/03 01:21:09;;;;;;;6.80;4.00;;;;;;;11.67;65.40;101185.97;5056404;28;20047;-48
2022/06/03 01:23:54;;;;;;;6.78;4.18;;;;;;;11.64;65.81;101175.56;5073770;28;20099;-48
2022/06/03 01:26:50;;;;;;;5.88;4.25;;;;;;;11.55;66.02;101157.84;5074024;28;20392;-48
2022/06/03 01:29:39;;;;;;;7.65;3.95;;;;;;;11.54;65.65;101166.94;5059248;28;20040;-48
2022/06/03 01:32:37;;;;;;;3.60;2.72;;;;;;;11.59;65.31;101172.63;5074062;28;20058;-48
2022/06/03 01:35:42;;;;;;;4.20;3.30;;;;;;;11.70;65.31;101169.47;5043754;28;20071;-50
2022/06/03 01:38:36;;;;;;;3.65;3.35;;;;;;;11.61;64.83;101144.50;5030964;28;20074;-49
2022/06/03 01:41:23;;;;;;;6.57;3.53;;;;;;;11.74;65.36;101176.16;5041912;28;20484;-49
2022/06/03 01:44:29;;;;;;;3.90;3.28;;;;;;;11.75;65.34;101169.75;5073387;28;20094;-48
2022/06/03 01:47:34;;;;;;;5.80;4.63;;;;;;;11.72;65.94;101170.13;5025521;28;20119;-53
2022/06/03 01:50:31;;;;;;;4.50;4.05;;;;;;;11.71;65.57;101173.00;5030861;28;20039;-50
2022/06/03 01:53:23;;;;;;;3.05;2.75;;;;;;;11.79;64.30;101168.38;5058544;28;20031;-48
2022/06/03 01:56:25;;;;;;;4.05;3.63;;;;;;;11.86;65.06;101173.00;5043077;28;20107;-48
2022/06/03 01:59:30;;;;;;;7.05;3.83;;;;;;;11.81;64.93;101174.41;5060876;28;20028;-50
2022/06/03 02:02:32;;;;;;;8.43;3.83;;;;;;;11.87;64.74;101156.69;5047537;28;20021;-47
2022/06/03 02:05:31;;;;;;;3.55;3.25;;;;;;;11.90;63.83;101153.63;5061287;28;20037;-49
2022/06/03 02:08:26;;;;;;;5.03;3.50;;;;;;;11.98;63.38;101155.44;5039207;28;20063;-47
2022/06/03 02:11:27;;;;;;;5.38;3.60;;;;;;;11.93;63.72;101155.16;5058776;28;20040;-47
2022/06/03 02:14:25;;;;;;;3.97;3.67;;;;;;;12.01;63.56;101155.03;5044867;28;20051;-48
2022/06/03 02:17:20;;;;;;;3.58;3.28;;;;;;;11.97;63.15;101141.09;5055731;28;20048;-48
2022/06/03 02:20:14;;;;;;;3.42;3.13;;;;;;;11.95;63.44;101142.34;5074837;28;20185;-50
2022/06/03 02:23:16;;;;;;;6.22;4.50;;;;;;;11.76;65.28;101141.00;5062476;28;20044;-48
2022/06/03 02:26:21;;;;;;;5.68;3.58;;;;;;;11.75;65.76;101145.53;5077421;28;20032;-49
2022/06/03 02:32:35;;;;;;;4.43;3.53;;;;;;;11.75;65.37;101145.53;5050937;28;20029;-49
2022/06/03 02:35:23;;;;;;;2.80;2.55;;;;;;;11.69;65.03;101116.69;5068592;28;20089;-48
2022/06/03 02:38:29;;;;;;;7.45;4.10;;;;;;;11.76;65.49;101124.84;5046190;28;20048;-47
2022/06/03 02:41:28;;;;;;;5.03;3.20;;;;;;;11.76;65.36;101132.94;5053269;28;20032;-49
2022/06/03 02:44:34;;;;;;;2.80;2.55;;;;;;;11.68;66.04;101125.78;5064947;28;20029;-49
2022/06/03 02:47:19;;;;;;;;;;;;;;;11.72;66.29;101131.59;5052516;28;20136;-49
2022/06/03 02:50:21;;;;;;;5.80;3.55;;;;;;;11.74;65.99;101113.44;5062459;28;19912;-49
2022/06/03 02:53:07;;;;;;;3.90;3.33;;;;;;;11.68;65.12;101104.25;5062133;28;20132;-48
2022/06/03 02:55:53;;;;;;;5.93;3.80;;;;;;;11.79;64.16;101111.00;5042483;28;20024;-47
2022/06/03 02:58:49;;;;;;;4.20;3.65;;;;;;;11.78;64.31;101104.81;5076618;28;20028;-48
2022/06/03 03:01:55;;;;;;;6.80;4.25;;;;;;;11.90;64.41;101120.50;5047698;28;20028;-47
2022/06/03 03:04:48;;;;;;;3.55;3.35;;;;;;;11.87;64.23;101115.47;5050872;28;20050;-48
2022/06/03 03:07:32;;;;;;;3.92;3.35;;;;;;;11.89;64.43;101116.13;5044711;28;20169;-49
2022/06/03 03:10:14;;;;;;;4.57;3.05;;;;;;;11.54;64.26;101059.34;5076519;28;20036;-49
2022/06/03 03:13:09;;;;;;;5.40;4.10;;;;;;;11.79;65.10;101105.63;5059588;28;20052;-49
2022/06/03 03:16:12;;;;;;;4.50;3.38;;;;;;;11.76;65.18;101097.94;5046558;28;20070;-47
2022/06/03 03:19:17;;;;;;;4.32;3.92;;;;;;;11.70;66.04;101095.97;5064331;28;20044;-52
2022/06/03 03:22:24;;;;;;;6.85;5.60;;;;;;;11.47;67.29;101107.66;5050240;28;20082;-47
2022/06/03 03:25:16;;;;;;;5.03;4.15;;;;;;;11.48;66.40;101101.28;5061389;28;20048;-48
2022/06/03 03:28:16;;;;;;;4.22;3.83;;;;;;;11.51;66.78;101095.50;5063434;28;20055;-48
2022/06/03 03:31:03;;;;;;;4.93;4.53;;;;;;;11.42;66.83;101102.84;5094972;28;20118;-48
2022/06/03 03:33:57;;;;;;;9.35;5.80;;;;;;;11.28;67.81;101097.44;5095169;28;20066;-47
2022/06/03 03:36:48;;;;;;;6.68;5.97;;;;;;;11.11;67.59;101086.00;5077604;28;20036;-48
2022/06/03 03:39:54;;;;;;;9.45;6.40;;;;;;;11.11;68.30;101096.75;5077269;28;20077;-47
2022/06/03 03:42:54;;;;;;;12.60;5.90;;;;;;;10.84;69.45;101091.75;5069185;28;20039;-48
2022/06/03 03:45:59;;;;;;;5.65;5.15;;;;;;;10.87;68.37;101085.19;5095080;28;20032;-49
2022/06/03 03:49:00;;;;;;;9.48;6.43;;;;;;;10.75;68.94;101092.81;5068609;28;20241;-48
2022/06/03 03:51:52;;;;;;;5.60;5.10;;;;;;;10.72;68.56;101082.44;5081894;28;20115;-48
2022/06/03 03:54:50;;;;;;;11.18;5.20;;;;;;;10.54;68.88;101072.00;5079745;28;20427;-48
2022/06/03 03:57:39;;;;;;;6.63;6.03;;;;;;;10.43;70.19;101072.41;5094585;28;20397;-49
2022/06/03 04:00:45;;;;;;;15.93;6.80;;;;;;;10.40;70.01;101078.97;5094869;28;20038;-48
2022/06/03 04:03:40;;;;;;;5.53;5.05;;;;;;;10.36;69.97;101077.63;5068422;28;20025;-47
2022/06/03 04:06:46;;;;;;;10.23;5.07;;;;;;;10.36;69.97;101079.50;5062963;28;20042;-48
2022/06/03 04:09:27;;;;;;;4.85;4.28;;;;;;;10.45;68.59;101090.00;5068731;28;20062;-48
2022/06/03 04:12:29;;;;;;;6.60;5.57;;;;;;;10.50;68.30;101084.09;5094391;28;20056;-48
2022/06/03 04:15:24;;;;;;;7.10;5.90;;;;;;;10.53;67.93;101086.44;5081854;28;20077;-48
2022/06/03 04:18:09;;;;;;;8.18;6.00;;;;;;;10.54;68.14;101079.22;5065499;28;20035;-47
2022/06/03 04:20:59;;;;;;;6.20;5.60;;;;;;;10.54;67.66;101093.47;5094984;28;20054;-47
2022/06/03 04:23:56;;;;;;;8.88;6.93;;;;;;;10.42;68.76;101085.00;5041100;28;1348325;-48
2022/06/03 04:26:48;;;;;;;9.38;5.72;;;;;;;10.24;70.06;101087.91;5060651;28;20047;-48
2022/06/03 04:29:54;;;;;;;6.78;6.18;;;;;;;10.21;69.60;101085.56;5057504;28;20385;-47
2022/06/03 04:32:58;;;;;;;7.45;5.60;;;;;;;10.13;70.99;101088.31;5049369;28;20029;-48
2022/06/03 04:36:03;;;;;;;10.43;7.07;;;;;;;10.03;71.61;101093.91;5063019;28;20033;-47
2022/06/03 04:39:09;;;;;;;9.02;7.22;;;;;;;10.10;71.28;101087.81;5049747;28;20097;-48
2022/06/03 04:42:14;;;;;;;7.68;5.38;;;;;;;10.03;71.44;101085.03;5046579;28;20038;-48
2022/06/03 04:45:11;;;;;;;6.78;5.60;;;;;;;10.06;71.40;101081.97;5044314;28;20032;-60
2022/06/03 04:48:16;;;;;;;7.40;6.70;;;;;;;9.76;72.35;101065.66;5075659;28;20040;-48
2022/06/03 04:51:21;;;;;;;12.02;6.70;;;;;;;9.79;72.81;101077.91;5060862;28;20032;-47
2022/06/03 04:54:27;;;;;;;9.05;5.47;;;;;;;9.89;72.10;101082.03;5052650;28;20373;-48
2022/06/03 04:57:30;;;;;;;9.43;6.28;;;;;;;10.00;72.15;101085.34;5047291;28;20032;-49
2022/06/03 05:00:13;;;;;;;14.13;7.53;;;;;;;9.96;72.21;101073.31;5049414;28;20063;-52
2022/06/03 05:03:15;;;;;;;8.32;6.72;;;;;;;10.11;71.68;101082.28;5079769;28;20028;-48
2022/06/03 05:06:20;;;;;;;7.70;4.82;;;;;;;10.32;71.21;101091.59;5048485;28;20037;-49
2022/06/03 05:09:25;;;;;;;6.47;5.47;;;;;;;10.50;70.44;101092.16;5064612;28;20067;-49
2022/06/03 05:12:31;;;;;;;6.18;5.38;;;;;;;10.55;69.87;101073.69;5050633;28;20393;-48
2022/06/03 05:15:36;;;;;;;5.00;4.57;;;;;;;10.95;68.64;101101.22;5049021;28;20036;-48
2022/06/03 05:18:40;;;;;;;6.68;5.63;;;;;;;11.04;68.33;101096.63;5048684;28;20032;-49
2022/06/03 05:21:37;;;;;;;5.50;4.68;;;;;;;11.01;67.87;101088.91;5059432;28;20079;-51
2022/06/03 05:24:41;;;;;;;7.82;5.80;;;;;;;11.01;68.94;101105.03;5078924;28;20058;-49
2022/06/03 05:27:39;;;;;;;8.18;5.50;;;;;;;11.09;68.03;101112.19;5083011;28;20464;-53
2022/06/03 05:30:30;;;;;;;8.82;6.57;;;;;;;11.13;68.42;101103.63;5082919;28;20042;-48
2022/06/03 05:33:33;;;;;;;5.00;4.60;;;;;;;11.22;68.43;101096.31;5097638;28;20039;-48
2022/06/03 05:36:34;;;;;;;9.45;5.90;;;;;;;11.28;68.05;101082.13;5085246;28;20046;-49
2022/06/03 05:39:40;;;;;;;7.13;6.40;;;;;;;11.43;68.23;101099.13;5079833;28;20035;-51
2022/06/03 05:42:45;;;;;;;9.13;5.93;;;;;;;11.58;67.01;101080.28;5053093;28;20039;-48
2022/06/03 05:45:47;;;;;;;6.15;4.50;;;;;;;11.96;66.03;101095.53;5063005;28;20442;-49
2022/06/03 05:48:38;;;;;;;5.70;5.20;;;;;;;12.09;65.88;101092.19;5065634;28;20039;-48
2022/06/03 05:51:18;;;;;;;6.90;5.95;;;;;;;12.17;65.54;101103.69;5079480;28;20039;-48
2022/06/03 05:54:12;;;;;;;5.28;4.78;;;;;;;12.24;65.35;101106.47;5078052;28;20388;-50
2022/06/03 05:56:56;;;;;;;4.57;4.18;;;;;;;12.31;64.64;101107.38;5080654;28;20032;-50
2022/06/03 06:00:01;;;;;;;7.00;5.47;;;;;;;12.06;66.33;101095.25;5076715;28;20027;-48
2022/06/03 06:02:44;;;;;;;8.05;5.95;;;;;;;12.09;66.37;101103.81;5069084;28;20035;-47
2022/06/03 06:05:36;;;;;;;8.43;5.43;;;;;;;12.22;66.15;101113.06;5094688;28;20086;-48
2022/06/03 06:08:23;;;;;;;7.68;5.40;;;;;;;12.27;66.35;101108.75;5081417;28;20034;-50
2022/06/03 06:11:06;;;;;;;9.70;6.18;;;;;;;12.43;65.69;101115.81;5096709;28;20120;-48
2022/06/03 06:14:11;;;;;;;8.60;5.50;;;;;;;12.46;65.95;101107.34;5078068;28;20036;-48
2022/06/03 06:16:40;;;;;;;5.85;5.03;;;;;;;12.38;66.04;101093.97;5068246;28;20078;-49
2022/06/03 06:19:37;;;;;;;7.20;5.05;;;;;;;12.67;65.88;101111.91;5094540;28;20039;-49
2022/06/03 06:22:26;;;;;;;6.72;4.70;;;;;;;12.77;65.59;101109.72;5080950;28;20434;-54
2022/06/03 06:25:10;;;;;;;9.02;5.40;;;;;;;12.92;64.89;101100.75;5079742;28;20078;-48
2022/06/03 06:27:57;;;;;;;7.25;5.20;;;;;;;13.13;64.45;101107.97;5093822;28;20066;-49
2022/06/03 06:30:50;;;;;;;6.90;5.57;;;;;;;13.30;64.58;101112.09;5062289;28;20451;-48
2022/06/03 06:33:45;;;;;;;9.38;5.47;;;;;;;13.39;64.28;101111.94;5080136;28;20392;-49
2022/06/03 06:36:42;;;;;;;6.88;5.22;;;;;;;13.46;63.77;101110.13;5062867;28;20418;-49
2022/06/03 06:39:40;;;;;;;9.30;6.00;;;;;;;13.33;64.52;101109.03;5079280;28;20094;-51
2022/06/03 06:42:36;;;;;;;6.80;6.20;;;;;;;13.31;65.13;101116.44;5064735;28;20024;-49
2022/06/03 06:45:27;;;;;;;11.48;6.88;;;;;;;13.25;65.73;101100.19;5081263;28;20032;-52
2022/06/03 06:48:09;;;;;;;8.32;7.25;;;;;;;13.40;65.01;101106.34;5109332;28;20024;-50
2022/06/03 06:50:49;;;;;;;6.07;5.57;;;;;;;13.62;64.29;101107.13;5104129;28;20495;-52
2022/06/03 06:53:32;;;;;;;8.63;6.25;;;;;;;13.74;63.68;101089.38;5094858;28;20047;-48
2022/06/03 06:56:24;;;;;;;7.53;6.70;;;;;;;13.95;63.21;101106.50;5077309;28;20028;-48
2022/06/03 06:58:58;;;;;;;12.35;7.38;;;;;;;14.04;63.35;101104.44;5079330;28;20107;-49
2022/06/03 07:01:41;;;;;;;8.40;7.63;;;;;;;14.08;63.23;101087.66;5076561;28;20099;-50
2022/06/03 07:04:12;;;;;;;8.45;6.72;;;;;;;14.33;62.98;101106.03;5075058;28;20077;-48
2022/06/03 07:06:43;;;;;;;11.75;7.47;;;;;;;14.57;62.23;101107.38;5077858;28;20081;-49
2022/06/03 07:09:33;;;;;;;10.57;8.80;;;;;;;14.81;62.16;101105.13;5078997;28;20047;-50
2022/06/03 07:12:17;;;;;;;6.85;6.13;;;;;;;15.07;61.33;101102.44;5066046;28;20528;-50
2022/06/03 07:14:54;;;;;;;7.28;5.95;;;;;;;15.19;61.08;101108.09;5099798;28;20092;-50
2022/06/03 07:20:40;;;;;;;9.25;5.97;;;;;;;15.38;60.89;101113.66;5068442;28;20464;-49
2022/06/03 07:23:14;;;;;;;7.03;4.95;;;;;;;15.46;60.40;101110.75;5095996;28;20055;-50
2022/06/03 07:25:47;;;;;;;7.68;5.90;;;;;;;15.56;60.50;101107.63;5080909;28;20040;-50
2022/06/03 07:28:47;;;;;;;10.10;6.15;;;;;;;15.68;60.33;101109.47;5082739;28;20025;-48
2022/06/03 07:31:52;;;;;;;8.13;6.00;;;;;;;15.76;59.97;101108.44;5052207;28;20032;-50
2022/06/03 07:34:27;;;;;;;6.13;5.13;;;;;;;15.82;59.88;101104.03;5051319;28;20050;-49
2022/06/03 07:37:15;;;;;;;7.18;5.88;;;;;;;15.85;59.85;101111.75;5058388;28;20033;-49
2022/06/03 07:39:58;;;;;;;10.48;6.63;;;;;;;15.54;60.59;101102.41;5044403;28;20040;-49
2022/06/03 07:42:49;;;;;;;7.30;5.35;;;;;;;15.67;60.50;101107.81;5075922;28;20424;-49
2022/06/03 07:45:47;;;;;;;4.88;4.18;;;;;;;15.78;60.42;101111.75;5062337;28;20374;-49
2022/06/03 07:48:18;;;;;;;13.50;7.70;;;;;;;15.72;60.29;101112.59;5062940;28;20032;-49
2022/06/03 07:50:56;;;;;;;9.13;6.55;;;;;;;15.60;61.16;101112.41;5076100;28;20111;-49
2022/06/03 07:53:41;;;;;;;8.35;6.40;;;;;;;15.73;60.81;101106.16;5075439;28;20396;-48
2022/06/03 07:56:07;;;;;;;7.18;6.47;;;;;;;15.96;60.17;101104.84;5042761;28;20492;-48
2022/06/03 07:58:37;;;;;;;12.40;7.50;;;;;;;15.90;60.58;101109.25;5057672;28;20037;-49
2022/06/03 08:01:04;;;;;;;9.70;6.22;;;;;;;16.06;60.25;101094.38;5075420;28;20029;-49
2022/06/03 08:03:37;;;;;;;6.75;6.10;;;;;;;16.30;60.23;101097.41;5075625;28;20028;-49
2022/06/03 08:06:06;;;;;;;9.25;6.70;;;;;;;16.40;59.46;101082.34;5041710;28;20028;-49
2022/06/03 08:11:28;;;;;;;8.68;7.28;;;;;;;16.46;59.37;101080.66;5046571;28;20488;-49
2022/06/03 08:13:57;;;;;;;7.43;6.18;;;;;;;16.62;59.50;101101.84;5040899;28;20036;-49
2022/06/03 08:16:33;;;;;;;8.27;6.55;;;;;;;17.16;58.23;101102.31;5074908;28;20108;-49
2022/06/03 08:19:06;;;;;;;7.55;6.63;;;;;;;18.26;55.73;101094.50;5056754;28;20047;-48
2022/06/03 08:21:41;;;;;;;6.20;4.68;;;;;;;18.77;54.60;101091.22;5057464;28;20024;-49
2022/06/03 08:24:10;;;;;;;7.25;5.78;;;;;;;19.56;52.37;101089.31;5069922;28;20424;-49
2022/06/03 08:26:39;;;;;;;7.93;5.82;;;;;;;19.96;51.92;101070.31;5095123;28;20109;-50
2022/06/03 08:29:12;;;;;;;6.78;6.05;;;;;;;19.53;52.47;101091.44;5077504;28;20024;-48
2022/06/03 08:31:39;;;;;;;7.82;6.07;;;;;;;19.72;51.66;101075.84;5077075;28;20396;-50
2022/06/03 08:34:10;;;;;;;11.57;6.20;;;;;;;19.54;51.71;101095.03;5043735;28;20468;-48
2022/06/03 08:36:39;;;;;;;9.98;6.40;;;;;;;19.29;52.54;101096.06;5095014;28;20542;-49
2022/06/03 08:39:13;;;;;;;5.20;4.30;;;;;;;20.71;50.42;101081.31;5094978;28;20482;-50
2022/06/03 08:42:10;;;;;;;4.78;4.28;;;;;;;20.97;48.38;101097.06;5095523;28;20032;-49
2022/06/03 08:44:53;;;;;;;13.60;6.68;;;;;;;21.17;48.06;101093.00;5081777;28;20235;-50
2022/06/03 08:47:27;;;;;;;6.30;5.65;;;;;;;20.82;49.14;101091.31;5094950;28;20043;-49
2022/06/03 08:50:13;;;;;;;6.93;6.32;;;;;;;21.22;48.68;101087.63;5095134;28;20075;-49
2022/06/03 08:52:56;;;;;;;15.23;7.68;;;;;;;21.32;47.76;101089.66;5078201;28;20529;-50
2022/06/03 08:55:49;;;;;;;8.82;5.78;;;;;;;21.38;48.36;101089.50;5095113;28;20036;-50
2022/06/03 08:58:40;;;;;;;19.02;8.13;;;;;;;21.57;48.30;101086.53;5080175;28;20052;-48
2022/06/03 09:01:27;;;;;;;6.35;4.75;;;;;;;21.44;48.07;101080.34;5079699;28;20040;-49
2022/06/03 09:04:32;;;;;;;11.25;6.30;;;;;;;20.60;48.58;101086.59;5076710;28;20028;-49
2022/06/03 09:07:23;;;;;;;10.20;7.25;;;;;;;20.82;48.91;101086.72;5083327;28;20039;-49
2022/06/03 09:10:14;;;;;;;7.45;6.25;;;;;;;21.39;47.88;101091.16;5063593;28;20388;-49
2022/06/03 09:13:04;;;;;;;12.20;8.15;;;;;;;21.64;45.91;101088.00;5082069;28;20028;-50
2022/06/03 09:15:37;;;;;;;6.88;5.30;;;;;;;21.31;48.44;101083.38;5096793;28;20040;-54
2022/06/03 09:18:09;;;;;;;14.85;7.68;;;;;;;21.24;48.04;101080.00;5095925;28;20464;-49
2022/06/03 09:20:44;;;;;;;8.48;5.82;;;;;;;21.86;47.08;101081.72;5094410;28;20040;-54
2022/06/03 09:23:16;;;;;;;10.35;7.55;;;;;;;21.24;47.50;101063.59;5076115;28;20465;-49
2022/06/03 09:25:47;;;;;;;7.50;6.05;;;;;;;22.11;46.50;101069.44;5094921;28;20102;-49
2022/06/03 09:28:20;;;;;;;5.93;5.32;;;;;;;22.36;46.98;101074.38;5075999;28;20046;-48
2022/06/03 09:30:47;;;;;;;9.18;7.88;;;;;;;22.72;44.17;101077.50;5059265;28;20035;-49
2022/06/03 09:33:16;;;;;;;10.05;6.70;;;;;;;22.17;45.70;101057.47;5076144;28;20028;-49
2022/06/03 09:35:45;;;;;;;9.35;7.65;;;;;;;22.31;44.65;101071.63;5095028;28;20084;-52
2022/06/03 09:38:13;;;;;;;13.27;8.57;;;;;;;22.54;44.67;101057.59;5076763;28;20028;-49
2022/06/03 09:40:42;;;;;;;8.77;7.32;;;;;;;23.00;45.64;101071.69;5093939;28;20036;-48
2022/06/03 09:43:19;;;;;;;13.05;7.18;;;;;;;24.22;42.58;101052.63;5059383;28;20028;-49
2022/06/03 09:45:46;;;;;;;6.32;5.72;;;;;;;25.11;41.66;101047.75;5094239;28;20110;-49
2022/06/03 09:48:17;;;;;;;8.43;5.30;;;;;;;25.18;41.85;101053.81;5078429;28;20469;-49
2022/06/03 09:50:47;;;;;;;7.53;5.43;;;;;;;26.24;39.94;101048.25;5078150;28;20107;-49
2022/06/03 09:53:18;;;;;;;9.93;5.32;;;;;;;27.52;35.49;101048.28;5096663;28;20031;-49
2022/06/03 09:55:51;;;;;;;11.98;7.38;;;;;;;27.15;34.21;101039.53;5078308;28;20028;-50
2022/06/03 09:58:21;;;;;;;6.63;4.43;;;;;;;27.97;36.27;101046.09;5095128;28;20476;-51
2022/06/03 10:00:50;;;;;;;11.98;6.90;;;;;;;27.94;33.63;101010.81;5094307;28;20040;-50
2022/06/03 10:03:17;;;;;;;6.95;5.70;;;;;;;26.43;38.55;101039.31;5076001;28;20035;-48
2022/06/03 10:05:48;;;;;;;7.22;5.47;;;;;;;27.19;37.25;101032.34;5076224;28;20480;-49
2022/06/03 10:08:18;;;;;;;13.27;5.55;;;;;;;26.68;38.26;101032.81;5076389;28;20047;-49
2022/06/03 10:13:31;;;;;;;5.78;5.05;;;;;;;25.91;38.99;101035.16;5078708;28;20028;-48
2022/06/03 10:16:00;;;;;;;8.38;6.00;;;;;;;25.50;39.41;101016.91;5075394;28;20032;-48
2022/06/03 10:18:35;;;;;;;8.43;5.78;;;;;;;24.89;40.16;101031.59;5093463;28;20377;-49
2022/06/03 10:21:28;;;;;;;7.38;4.40;;;;;;;25.20;39.64;101015.88;5093796;28;20469;-48
2022/06/03 10:23:58;;;;;;;6.15;5.65;;;;;;;25.29;40.52;101035.41;5079627;28;20052;-48
2022/06/03 10:26:38;;;;;;;7.55;5.05;;;;;;;25.86;40.15;101025.84;5093927;28;20028;-48
2022/06/03 10:29:13;;;;;;;5.97;4.93;;;;;;;27.04;37.10;101019.53;5093972;28;20034;-48
2022/06/03 10:31:38;;;;;;;6.85;4.80;;;;;;;28.90;36.23;101017.88;5093811;28;20038;-49
2022/06/03 10:34:11;;;;;;;9.68;6.45;;;;;;;28.29;33.79;101016.94;5059051;28;20024;-48
2022/06/03 10:36:41;;;;;;;10.02;7.50;;;;;;;27.54;36.51;101021.22;5094303;28;20081;-48
2022/06/03 10:39:09;;;;;;;7.45;5.15;;;;;;;28.18;36.12;101019.84;5094185;28;20032;-49
2022/06/03 10:41:40;;;;;;;7.57;5.25;;;;;;;29.39;32.73;101026.69;5096583;28;20027;-48
2022/06/03 10:44:13;;;;;;;7.85;5.55;;;;;;;28.71;32.89;101027.03;5099052;28;20035;-49
2022/06/03 10:47:11;;;;;;;6.43;4.60;;;;;;;28.17;32.41;101033.94;5098155;28;20031;-49
2022/06/03 10:49:51;;;;;;;13.48;6.25;;;;;;;27.20;35.58;101013.84;5083535;28;20038;-48
2022/06/03 11:01:14;;;;;;;21.25;8.50;;;;;;;25.73;35.96;101022.91;5082419;28;19907;-48
2022/06/03 11:03:41;;;;;;;6.00;5.28;;;;;;;24.70;37.83;101034.06;5097969;28;20476;-48
2022/06/03 11:06:11;;;;;;;4.65;4.20;;;;;;;24.47;39.66;101038.13;5098176;28;20032;-48
2022/06/03 11:08:59;;;;;;;4.60;4.20;;;;;;;24.22;39.77;101023.28;5080488;28;20045;-49
2022/06/03 11:11:49;;;;;;;7.43;5.10;;;;;;;23.89;40.49;101017.16;5080874;28;20020;-51
2022/06/03 11:14:41;;;;;;;5.55;4.95;;;;;;;23.67;40.99;101024.72;5087129;28;20397;-52
2022/06/03 11:17:15;;;;;;;5.90;4.65;;;;;;;23.53;41.12;101025.22;5081589;28;20025;-47
2022/06/03 11:19:45;;;;;;;8.00;6.22;;;;;;;22.89;40.67;101011.63;5063289;28;20039;-48
2022/06/03 11:22:16;;;;;;;9.07;6.60;;;;;;;22.77;41.52;101036.44;5082300;28;20125;-51
2022/06/03 11:24:50;;;;;;;4.30;3.90;;;;;;;22.98;41.79;101031.97;5089824;28;20053;-50
2022/06/03 11:27:19;;;;;;;10.55;6.35;;;;;;;22.70;41.84;101022.97;5083312;28;20040;-49
2022/06/03 11:29:47;;;;;;;5.38;4.85;;;;;;;22.64;41.70;101023.19;5063451;28;20503;-48
2022/06/03 11:32:16;;;;;;;6.35;4.70;;;;;;;22.78;41.89;101029.88;5076271;28;20060;-48
2022/06/03 11:34:57;;;;;;;9.85;4.82;;;;;;;22.77;41.08;101033.69;5076589;28;20028;-47
2022/06/03 11:37:29;;;;;;;6.57;5.43;;;;;;;22.98;39.14;101027.31;5075919;28;20082;-50
2022/06/03 11:40:00;;;;;;;5.43;4.90;;;;;;;25.40;36.04;101037.03;5082506;28;20032;-49
2022/06/03 11:42:42;;;;;;;5.53;4.53;;;;;;;26.18;33.72;101034.78;5061165;28;20105;-49
2022/06/03 11:45:19;;;;;;;3.85;3.20;;;;;;;28.15;33.74;101003.84;5041313;28;20357;-48
2022/06/03 11:48:01;;;;;;;5.13;4.63;;;;;;;26.80;30.55;101021.41;5057465;28;20028;-48
2022/06/03 11:50:29;;;;;;;5.72;4.60;;;;;;;25.45;33.49;101034.25;5057395;28;20032;-48
2022/06/03 11:52:57;;;;;;;5.43;3.85;;;;;;;25.44;34.57;101031.78;5075105;28;20392;-47
2022/06/03 11:55:26;;;;;;;7.07;4.75;;;;;;;24.70;34.86;101020.31;5041179;28;20035;-49
2022/06/03 11:58:08;;;;;;;4.78;3.40;;;;;;;26.79;34.40;100984.75;5074973;28;20032;-48
2022/06/03 12:00:39;;;;;;;7.40;4.25;;;;;;;28.13;28.80;100997.00;5075049;28;20036;-47
2022/06/03 12:03:21;;;;;;;14.43;5.70;;;;;;;27.99;28.52;100995.00;5075241;28;20028;-49
2022/06/03 12:05:56;;;;;;;7.85;4.47;;;;;;;27.93;29.50;100996.16;5074891;28;20025;-47
2022/06/03 12:08:29;;;;;;;6.70;4.18;;;;;;;27.02;30.92;101004.38;5074906;28;20115;-48
2022/06/03 12:11:03;;;;;;;6.18;3.65;;;;;;;27.19;31.47;101004.75;5056961;28;20028;-48
2022/06/03 12:13:32;;;;;;;10.20;4.70;;;;;;;25.76;31.55;101011.31;5040211;28;20029;-49
2022/06/03 12:16:11;;;;;;;7.35;4.20;;;;;;;25.14;33.44;101019.72;5056808;28;20024;-49
2022/06/03 12:18:57;;;;;;;4.70;3.42;;;;;;;25.11;34.08;101015.63;5074657;28;20070;-48
2022/06/03 12:21:47;;;;;;;5.45;3.70;;;;;;;25.68;32.94;101012.72;5057177;28;20036;-49
2022/06/03 12:24:40;;;;;;;5.15;3.20;;;;;;;25.65;33.55;101005.06;5073112;28;20048;-48
2022/06/03 12:27:13;;;;;;;4.10;3.28;;;;;;;25.74;32.70;101010.75;5081431;28;20040;-49
2022/06/03 12:29:45;;;;;;;6.15;4.32;;;;;;;25.07;33.52;101006.28;5097318;28;20039;-52
2022/06/03 12:32:17;;;;;;;5.85;3.55;;;;;;;24.80;33.39;101003.03;5097811;28;20028;-49
2022/06/03 12:34:43;;;;;;;3.88;3.47;;;;;;;24.67;34.88;101013.47;5061324;28;20061;-52
2022/06/03 12:37:27;;;;;;;5.63;3.70;;;;;;;24.35;35.00;101017.25;5095528;28;20024;-49
2022/06/03 12:39:58;;;;;;;6.65;4.05;;;;;;;24.39;33.93;101001.06;5095064;28;20131;-48
2022/06/03 12:42:37;;;;;;;5.10;3.35;;;;;;;24.34;34.18;100993.63;5078617;28;20384;-55
2022/06/03 12:45:25;;;;;;;6.95;3.80;;;;;;;24.26;33.74;101010.66;5077987;28;20078;-55
2022/06/03 12:47:51;;;;;;;5.85;3.53;;;;;;;24.27;33.67;100978.53;5063362;28;20038;-48
2022/06/03 12:50:36;;;;;;;6.75;3.30;;;;;;;24.29;32.68;101012.88;5094357;28;20024;-48
2022/06/03 12:53:33;;;;;;;4.13;3.20;;;;;;;24.30;32.37;101013.69;5060742;28;20028;-49
2022/06/03 12:56:02;;;;;;;3.70;3.35;;;;;;;24.17;32.00;101008.72;5076115;28;20034;-50
2022/06/03 12:58:56;;;;;;;5.78;3.05;;;;;;;24.16;33.06;101002.41;5094407;28;20036;-49
2022/06/03 13:01:31;;;;;;;6.47;2.50;;;;;;;24.14;33.95;100999.09;5078841;28;20054;-48
2022/06/03 13:04:37;;;;;;;6.07;2.95;;;;;;;24.33;32.49;101013.97;5058393;28;20024;-50
2022/06/03 13:07:32;;;;;;;4.72;3.53;;;;;;;23.71;32.69;101025.81;5061803;28;20059;-48
2022/06/03 13:10:22;;;;;;;4.95;3.70;;;;;;;23.19;32.58;101022.81;5063480;28;20028;-52
2022/06/03 13:12:51;;;;;;;6.75;2.97;;;;;;;22.98;35.01;100971.69;5062071;28;20032;-48